Barkald — V7IM6 — position and weather

sailwx.info

Track history (hours):
 
Tides and Currents Weather Stations Pressure Air Temp Water Temp Dewpoint Dewpoint Depression Visibility Wind Speed Wind Dir Waves Ship Positions

Barkald

Last reported at 2014-Aug-31 09:19 UTC. Time now 2014-Sep-02 02:17 UTC.
Position N 37°29' E 004°09'.

Length 189 m; draft 6.3 m.

MMSI: 538002409.

Date/timePositionNaut miles runAvg speedWind from/ knotsBaromVisibWave heightAir tempDewpointWater temp
2014-Aug-31 09:19N 37°29' E 004°09'13211.2
2014-Aug-30 21:32N 37°18' E 001°23'1 0.7
2014-Aug-30 20:33N 37°19' E 001°24'8 0.6
2014-Aug-30 07:24N 37°12' E 001°30'5912.2
2014-Aug-30 02:32N 36°44' E 000°25'1413.8
2014-Aug-30 01:33N 36°41' E 000°08'1413.6
2014-Aug-30 00:31N 36°38' W 000°09'1313.3
2014-Aug-29 23:34N 36°35' W 000°24'1713.7
2014-Aug-29 22:17N 36°30' W 000°45'1013.2
2014-Aug-29 21:33N 36°28' W 000°57'1413.5
2014-Aug-29 20:32N 36°25' W 001°14'1313.4
2014-Aug-29 19:33N 36°22' W 001°30'1413.7
2014-Aug-29 18:31N 36°20' W 001°47'1413.7
2014-Aug-29 17:28N 36°17' W 002°05'15814.4
2014-Aug-29 06:29N 36°00' W 005°20'7512.7
2014-Aug-29 00:33N 35°59' W 006°52'1713.9
2014-Aug-28 23:20N 36°01' W 007°13'1113.7
2014-Aug-28 22:33N 36°03' W 007°26'1513.7
2014-Aug-28 21:29N 36°05' W 007°44'1313.6
2014-Aug-28 20:33N 36°06' W 007°60'1413.9
2014-Aug-28 19:31N 36°08' W 008°17'1513.7
2014-Aug-28 18:27N 36°10' W 008°35'1314.2
2014-Aug-28 17:33N 36°14' W 008°50'1414.2
2014-Aug-28 16:33N 36°17' W 009°08'1413.7
2014-Aug-28 15:33N 36°19' W 009°24'1313.2
2014-Aug-28 14:34N 36°24' W 009°40'1313.1
2014-Aug-28 13:33N 36°29' W 009°55'1313.0
2014-Aug-28 12:33N 36°33' W 010°10'1711.3
2014-Aug-28 11:05N 36°39' W 010°29'1 1.1
2014-Aug-28 10:34N 36°39' W 010°30'1 0.9
2014-Aug-28 09:30N 36°40' W 010°31'4 4.3
2014-Aug-28 08:32N 36°42' W 010°36'1212.5
2014-Aug-28 07:33N 36°47' W 010°50'1413.9
2014-Aug-28 06:33N 36°52' W 011°06'1713.7
2014-Aug-28 05:19N 36°58' W 011°26'  
2014-Aug-25 16:28N 41°00' W 029°44'2014.8
2014-Aug-25 15:08N 41°04' W 030°09'914.7
2014-Aug-25 14:33N 41°05' W 030°20'  
Track history (hours):
 
Tides and Currents Weather Stations Pressure Air Temp Water Temp Dewpoint Dewpoint Depression Visibility Wind Speed Wind Dir Waves Ship Positions

Barkald

Last reported at 2014-Aug-31 09:19 UTC. Time now 2014-Sep-02 02:17 UTC.
Position N 37°29' E 004°09'.

Length 189 m; draft 6.3 m.

MMSI: 538002409.

Date/timePositionNaut miles runAvg speedWind from/ knotsBaromVisibWave heightAir tempDewpointWater temp
2014-Aug-31 09:19N 37°29' E 004°09'13211.2
2014-Aug-30 21:32N 37°18' E 001°23'1 0.7
2014-Aug-30 20:33N 37°19' E 001°24'8 0.6
2014-Aug-30 07:24N 37°12' E 001°30'5912.2
2014-Aug-30 02:32N 36°44' E 000°25'1413.8
2014-Aug-30 01:33N 36°41' E 000°08'1413.6
2014-Aug-30 00:31N 36°38' W 000°09'1313.3
2014-Aug-29 23:34N 36°35' W 000°24'1713.7
2014-Aug-29 22:17N 36°30' W 000°45'1013.2
2014-Aug-29 21:33N 36°28' W 000°57'1413.5
2014-Aug-29 20:32N 36°25' W 001°14'1313.4
2014-Aug-29 19:33N 36°22' W 001°30'1413.7
2014-Aug-29 18:31N 36°20' W 001°47'1413.7
2014-Aug-29 17:28N 36°17' W 002°05'15814.4
2014-Aug-29 06:29N 36°00' W 005°20'7512.7
2014-Aug-29 00:33N 35°59' W 006°52'1713.9
2014-Aug-28 23:20N 36°01' W 007°13'1113.7
2014-Aug-28 22:33N 36°03' W 007°26'1513.7
2014-Aug-28 21:29N 36°05' W 007°44'1313.6
2014-Aug-28 20:33N 36°06' W 007°60'1413.9
2014-Aug-28 19:31N 36°08' W 008°17'1513.7
2014-Aug-28 18:27N 36°10' W 008°35'1314.2
2014-Aug-28 17:33N 36°14' W 008°50'1414.2
2014-Aug-28 16:33N 36°17' W 009°08'1413.7
2014-Aug-28 15:33N 36°19' W 009°24'1313.2
2014-Aug-28 14:34N 36°24' W 009°40'1313.1
2014-Aug-28 13:33N 36°29' W 009°55'1313.0
2014-Aug-28 12:33N 36°33' W 010°10'1711.3
2014-Aug-28 11:05N 36°39' W 010°29'1 1.1
2014-Aug-28 10:34N 36°39' W 010°30'1 0.9
2014-Aug-28 09:30N 36°40' W 010°31'4 4.3
2014-Aug-28 08:32N 36°42' W 010°36'1212.5
2014-Aug-28 07:33N 36°47' W 010°50'1413.9
2014-Aug-28 06:33N 36°52' W 011°06'1713.7
2014-Aug-28 05:19N 36°58' W 011°26'  
2014-Aug-25 16:28N 41°00' W 029°44'2014.8
2014-Aug-25 15:08N 41°04' W 030°09'914.7
2014-Aug-25 14:33N 41°05' W 030°20'  

Dump ship's entire track history